sensor_id;sensor_type;location;lat;lon;timestamp;P1;durP1;ratioP1;P2;durP2;ratioP2
44165;SDS011;30476;53.468;9.826;2023-04-25T00:01:17;5.40;;;4.10;;
44165;SDS011;30476;53.468;9.826;2023-04-25T00:03:44;4.23;;;3.83;;
44165;SDS011;30476;53.468;9.826;2023-04-25T00:06:10;3.73;;;3.00;;
44165;SDS011;30476;53.468;9.826;2023-04-25T00:08:37;5.20;;;3.10;;
44165;SDS011;30476;53.468;9.826;2023-04-25T00:11:03;6.40;;;3.10;;
44165;SDS011;30476;53.468;9.826;2023-04-25T00:13:29;2.93;;;2.53;;
44165;SDS011;30476;53.468;9.826;2023-04-25T00:15:54;4.47;;;2.70;;
44165;SDS011;30476;53.468;9.826;2023-04-25T00:18:21;6.17;;;3.07;;
44165;SDS011;30476;53.468;9.826;2023-04-25T00:20:47;6.10;;;3.37;;
44165;SDS011;30476;53.468;9.826;2023-04-25T00:23:14;6.80;;;3.23;;
44165;SDS011;30476;53.468;9.826;2023-04-25T00:25:43;8.13;;;3.53;;
44165;SDS011;30476;53.468;9.826;2023-04-25T00:28:10;5.97;;;2.83;;
44165;SDS011;30476;53.468;9.826;2023-04-25T00:30:37;6.23;;;2.97;;
44165;SDS011;30476;53.468;9.826;2023-04-25T00:33:03;9.60;;;4.00;;
44165;SDS011;30476;53.468;9.826;2023-04-25T00:35:29;11.97;;;3.23;;
44165;SDS011;30476;53.468;9.826;2023-04-25T00:37:55;9.03;;;3.10;;
44165;SDS011;30476;53.468;9.826;2023-04-25T00:40:21;4.00;;;3.00;;
44165;SDS011;30476;53.468;9.826;2023-04-25T00:42:47;7.63;;;3.30;;
44165;SDS011;30476;53.468;9.826;2023-04-25T00:45:13;11.10;;;3.77;;
44165;SDS011;30476;53.468;9.826;2023-04-25T00:47:40;11.73;;;4.03;;
44165;SDS011;30476;53.468;9.826;2023-04-25T00:50:07;7.93;;;3.30;;
44165;SDS011;30476;53.468;9.826;2023-04-25T00:52:34;9.67;;;3.30;;
44165;SDS011;30476;53.468;9.826;2023-04-25T00:55:00;9.93;;;4.50;;
44165;SDS011;30476;53.468;9.826;2023-04-25T00:57:26;9.63;;;3.93;;
44165;SDS011;30476;53.468;9.826;2023-04-25T00:59:52;9.53;;;3.90;;
44165;SDS011;30476;53.468;9.826;2023-04-25T01:02:19;11.10;;;3.73;;
44165;SDS011;30476;53.468;9.826;2023-04-25T01:04:45;9.10;;;4.00;;
44165;SDS011;30476;53.468;9.826;2023-04-25T01:07:12;14.77;;;4.43;;
44165;SDS011;30476;53.468;9.826;2023-04-25T01:09:38;12.17;;;3.37;;
44165;SDS011;30476;53.468;9.826;2023-04-25T01:12:04;9.37;;;3.90;;
44165;SDS011;30476;53.468;9.826;2023-04-25T01:14:30;14.17;;;3.60;;
44165;SDS011;30476;53.468;9.826;2023-04-25T01:16:56;12.00;;;3.53;;
44165;SDS011;30476;53.468;9.826;2023-04-25T01:19:23;9.60;;;3.60;;
44165;SDS011;30476;53.468;9.826;2023-04-25T01:21:50;10.33;;;5.10;;
44165;SDS011;30476;53.468;9.826;2023-04-25T01:27:10;9.30;;;2.70;;
44165;SDS011;30476;53.468;9.826;2023-04-25T01:29:36;8.53;;;4.63;;
44165;SDS011;30476;53.468;9.826;2023-04-25T01:32:02;18.10;;;3.83;;
44165;SDS011;30476;53.468;9.826;2023-04-25T01:34:29;8.53;;;3.90;;
44165;SDS011;30476;53.468;9.826;2023-04-25T01:36:55;11.13;;;3.30;;
44165;SDS011;30476;53.468;9.826;2023-04-25T01:39:21;13.57;;;4.37;;
44165;SDS011;30476;53.468;9.826;2023-04-25T01:41:47;11.07;;;3.93;;
44165;SDS011;30476;53.468;9.826;2023-04-25T01:44:14;12.70;;;4.00;;
44165;SDS011;30476;53.468;9.826;2023-04-25T01:46:40;10.30;;;4.30;;
44165;SDS011;30476;53.468;9.826;2023-04-25T01:49:06;11.27;;;2.77;;
44165;SDS011;30476;53.468;9.826;2023-04-25T01:51:32;8.80;;;4.30;;
44165;SDS011;30476;53.468;9.826;2023-04-25T01:53:58;14.77;;;4.10;;
44165;SDS011;30476;53.468;9.826;2023-04-25T01:56:24;12.57;;;3.10;;
44165;SDS011;30476;53.468;9.826;2023-04-25T01:58:50;16.60;;;4.00;;
44165;SDS011;30476;53.468;9.826;2023-04-25T02:01:16;19.87;;;4.20;;
44165;SDS011;30476;53.468;9.826;2023-04-25T02:03:42;14.30;;;4.37;;
44165;SDS011;30476;53.468;9.826;2023-04-25T02:06:08;16.20;;;3.90;;
44165;SDS011;30476;53.468;9.826;2023-04-25T02:08:34;8.80;;;3.90;;
44165;SDS011;30476;53.468;9.826;2023-04-25T02:11:02;8.80;;;3.67;;
44165;SDS011;30476;53.468;9.826;2023-04-25T02:13:28;14.87;;;3.50;;
44165;SDS011;30476;53.468;9.826;2023-04-25T02:15:54;13.20;;;4.50;;
44165;SDS011;30476;53.468;9.826;2023-04-25T02:18:19;11.97;;;4.53;;
44165;SDS011;30476;53.468;9.826;2023-04-25T02:20:46;13.67;;;4.40;;
44165;SDS011;30476;53.468;9.826;2023-04-25T02:23:12;14.97;;;4.63;;
44165;SDS011;30476;53.468;9.826;2023-04-25T02:25:37;14.97;;;3.57;;
44165;SDS011;30476;53.468;9.826;2023-04-25T02:28:03;10.77;;;3.37;;
44165;SDS011;30476;53.468;9.826;2023-04-25T02:30:29;16.90;;;4.20;;
44165;SDS011;30476;53.468;9.826;2023-04-25T02:32:55;12.03;;;5.23;;
44165;SDS011;30476;53.468;9.826;2023-04-25T02:35:21;9.13;;;3.30;;
44165;SDS011;30476;53.468;9.826;2023-04-25T02:37:47;8.43;;;3.20;;
44165;SDS011;30476;53.468;9.826;2023-04-25T02:40:13;18.63;;;3.90;;
44165;SDS011;30476;53.468;9.826;2023-04-25T02:42:38;14.00;;;3.80;;
44165;SDS011;30476;53.468;9.826;2023-04-25T02:45:04;8.93;;;3.00;;
44165;SDS011;30476;53.468;9.826;2023-04-25T02:47:30;9.30;;;3.00;;
44165;SDS011;30476;53.468;9.826;2023-04-25T02:49:56;19.40;;;5.20;;
44165;SDS011;30476;53.468;9.826;2023-04-25T02:52:22;8.37;;;3.03;;
44165;SDS011;30476;53.468;9.826;2023-04-25T02:54:48;8.47;;;3.20;;
44165;SDS011;30476;53.468;9.826;2023-04-25T02:57:13;14.37;;;4.30;;
44165;SDS011;30476;53.468;9.826;2023-04-25T02:59:40;11.80;;;3.63;;
44165;SDS011;30476;53.468;9.826;2023-04-25T03:02:05;6.77;;;3.17;;
44165;SDS011;30476;53.468;9.826;2023-04-25T03:04:31;9.90;;;4.33;;
44165;SDS011;30476;53.468;9.826;2023-04-25T03:06:58;5.97;;;2.53;;
44165;SDS011;30476;53.468;9.826;2023-04-25T03:09:24;16.77;;;3.60;;
44165;SDS011;30476;53.468;9.826;2023-04-25T03:11:50;7.97;;;3.17;;
44165;SDS011;30476;53.468;9.826;2023-04-25T03:14:16;9.90;;;3.10;;
44165;SDS011;30476;53.468;9.826;2023-04-25T03:16:41;10.07;;;3.87;;
44165;SDS011;30476;53.468;9.826;2023-04-25T03:19:07;11.80;;;3.50;;
44165;SDS011;30476;53.468;9.826;2023-04-25T03:21:33;11.47;;;3.80;;
44165;SDS011;30476;53.468;9.826;2023-04-25T03:24:00;9.40;;;3.63;;
44165;SDS011;30476;53.468;9.826;2023-04-25T03:26:27;17.17;;;4.40;;
44165;SDS011;30476;53.468;9.826;2023-04-25T03:28:53;11.00;;;4.10;;
44165;SDS011;30476;53.468;9.826;2023-04-25T03:31:19;15.30;;;3.50;;
44165;SDS011;30476;53.468;9.826;2023-04-25T03:33:45;9.93;;;3.50;;
44165;SDS011;30476;53.468;9.826;2023-04-25T03:36:11;11.10;;;3.30;;
44165;SDS011;30476;53.468;9.826;2023-04-25T03:38:37;17.50;;;4.00;;
44165;SDS011;30476;53.468;9.826;2023-04-25T03:41:02;11.73;;;3.50;;
44165;SDS011;30476;53.468;9.826;2023-04-25T03:43:28;8.20;;;2.97;;
44165;SDS011;30476;53.468;9.826;2023-04-25T03:45:54;13.60;;;4.30;;
44165;SDS011;30476;53.468;9.826;2023-04-25T03:48:20;8.73;;;3.97;;
44165;SDS011;30476;53.468;9.826;2023-04-25T03:50:47;15.03;;;4.43;;
44165;SDS011;30476;53.468;9.826;2023-04-25T03:53:13;9.37;;;3.30;;
44165;SDS011;30476;53.468;9.826;2023-04-25T03:55:38;7.73;;;3.00;;
44165;SDS011;30476;53.468;9.826;2023-04-25T03:58:05;10.10;;;3.80;;
44165;SDS011;30476;53.468;9.826;2023-04-25T04:00:30;12.27;;;3.90;;
44165;SDS011;30476;53.468;9.826;2023-04-25T04:02:56;5.87;;;2.93;;
44165;SDS011;30476;53.468;9.826;2023-04-25T04:05:22;14.00;;;4.23;;
44165;SDS011;30476;53.468;9.826;2023-04-25T04:07:48;11.40;;;3.47;;
44165;SDS011;30476;53.468;9.826;2023-04-25T04:10:14;14.43;;;4.57;;
44165;SDS011;30476;53.468;9.826;2023-04-25T04:12:39;11.60;;;3.20;;
44165;SDS011;30476;53.468;9.826;2023-04-25T04:15:05;7.30;;;2.43;;
44165;SDS011;30476;53.468;9.826;2023-04-25T04:17:32;12.20;;;2.90;;
44165;SDS011;30476;53.468;9.826;2023-04-25T04:19:58;8.80;;;2.80;;
44165;SDS011;30476;53.468;9.826;2023-04-25T04:22:24;10.20;;;3.50;;
44165;SDS011;30476;53.468;9.826;2023-04-25T04:24:50;11.80;;;3.13;;
44165;SDS011;30476;53.468;9.826;2023-04-25T04:27:17;11.83;;;3.93;;
44165;SDS011;30476;53.468;9.826;2023-04-25T04:29:43;8.90;;;2.67;;
44165;SDS011;30476;53.468;9.826;2023-04-25T04:32:09;9.13;;;2.97;;
44165;SDS011;30476;53.468;9.826;2023-04-25T04:34:35;13.00;;;4.20;;
44165;SDS011;30476;53.468;9.826;2023-04-25T04:40:23;15.20;;;4.00;;
44165;SDS011;30476;53.468;9.826;2023-04-25T04:42:50;5.57;;;2.20;;
44165;SDS011;30476;53.468;9.826;2023-04-25T04:45:16;13.40;;;4.37;;
44165;SDS011;30476;53.468;9.826;2023-04-25T04:47:43;5.23;;;2.40;;
44165;SDS011;30476;53.468;9.826;2023-04-25T04:50:09;6.27;;;2.97;;
44165;SDS011;30476;53.468;9.826;2023-04-25T04:52:36;8.23;;;3.03;;
44165;SDS011;30476;53.468;9.826;2023-04-25T04:55:03;8.40;;;2.40;;
44165;SDS011;30476;53.468;9.826;2023-04-25T04:57:29;12.20;;;5.23;;
44165;SDS011;30476;53.468;9.826;2023-04-25T04:59:56;8.73;;;2.90;;
44165;SDS011;30476;53.468;9.826;2023-04-25T05:02:22;7.43;;;1.83;;
44165;SDS011;30476;53.468;9.826;2023-04-25T05:04:47;13.20;;;3.57;;
44165;SDS011;30476;53.468;9.826;2023-04-25T05:07:13;9.07;;;2.70;;
44165;SDS011;30476;53.468;9.826;2023-04-25T05:09:39;10.10;;;3.50;;
44165;SDS011;30476;53.468;9.826;2023-04-25T05:12:05;12.87;;;2.87;;
44165;SDS011;30476;53.468;9.826;2023-04-25T05:14:31;9.17;;;2.93;;
44165;SDS011;30476;53.468;9.826;2023-04-25T05:16:57;13.43;;;2.80;;
44165;SDS011;30476;53.468;9.826;2023-04-25T05:19:23;7.87;;;2.73;;
44165;SDS011;30476;53.468;9.826;2023-04-25T05:21:49;6.53;;;2.30;;
44165;SDS011;30476;53.468;9.826;2023-04-25T05:24:15;8.30;;;3.10;;
44165;SDS011;30476;53.468;9.826;2023-04-25T05:26:41;4.53;;;2.40;;
44165;SDS011;30476;53.468;9.826;2023-04-25T05:29:07;6.40;;;2.80;;
44165;SDS011;30476;53.468;9.826;2023-04-25T05:31:33;9.43;;;2.53;;
44165;SDS011;30476;53.468;9.826;2023-04-25T05:33:59;5.43;;;2.47;;
44165;SDS011;30476;53.468;9.826;2023-04-25T05:36:25;7.70;;;2.07;;
44165;SDS011;30476;53.468;9.826;2023-04-25T05:38:51;12.20;;;3.73;;
44165;SDS011;30476;53.468;9.826;2023-04-25T05:41:17;5.90;;;2.00;;
44165;SDS011;30476;53.468;9.826;2023-04-25T05:43:42;7.33;;;2.80;;
44165;SDS011;30476;53.468;9.826;2023-04-25T05:46:12;9.37;;;2.77;;
44165;SDS011;30476;53.468;9.826;2023-04-25T05:48:38;7.10;;;1.90;;
44165;SDS011;30476;53.468;9.826;2023-04-25T05:51:04;8.90;;;2.80;;
44165;SDS011;30476;53.468;9.826;2023-04-25T05:53:30;7.93;;;2.20;;
44165;SDS011;30476;53.468;9.826;2023-04-25T05:55:56;7.27;;;1.93;;
44165;SDS011;30476;53.468;9.826;2023-04-25T05:58:22;8.10;;;2.27;;
44165;SDS011;30476;53.468;9.826;2023-04-25T06:00:48;6.60;;;2.13;;
44165;SDS011;30476;53.468;9.826;2023-04-25T06:03:14;8.27;;;2.00;;
44165;SDS011;30476;53.468;9.826;2023-04-25T06:05:42;9.10;;;2.50;;
44165;SDS011;30476;53.468;9.826;2023-04-25T06:08:09;9.30;;;2.30;;
44165;SDS011;30476;53.468;9.826;2023-04-25T06:10:36;7.90;;;2.50;;
44165;SDS011;30476;53.468;9.826;2023-04-25T06:13:02;6.77;;;1.83;;
44165;SDS011;30476;53.468;9.826;2023-04-25T06:15:28;3.90;;;1.87;;
44165;SDS011;30476;53.468;9.826;2023-04-25T06:17:55;8.63;;;2.23;;
44165;SDS011;30476;53.468;9.826;2023-04-25T06:20:20;5.70;;;2.50;;
44165;SDS011;30476;53.468;9.826;2023-04-25T06:22:48;12.03;;;2.60;;
44165;SDS011;30476;53.468;9.826;2023-04-25T06:25:15;13.60;;;4.10;;
44165;SDS011;30476;53.468;9.826;2023-04-25T06:27:41;5.37;;;2.03;;
44165;SDS011;30476;53.468;9.826;2023-04-25T06:30:07;6.40;;;1.97;;
44165;SDS011;30476;53.468;9.826;2023-04-25T06:32:33;7.03;;;2.90;;
44165;SDS011;30476;53.468;9.826;2023-04-25T06:34:59;5.37;;;2.80;;
44165;SDS011;30476;53.468;9.826;2023-04-25T06:37:25;8.23;;;3.63;;
44165;SDS011;30476;53.468;9.826;2023-04-25T06:39:51;13.40;;;2.40;;
44165;SDS011;30476;53.468;9.826;2023-04-25T06:42:17;5.90;;;2.30;;
44165;SDS011;30476;53.468;9.826;2023-04-25T06:44:43;8.47;;;4.70;;
44165;SDS011;30476;53.468;9.826;2023-04-25T06:47:09;9.50;;;2.40;;
44165;SDS011;30476;53.468;9.826;2023-04-25T06:49:34;4.60;;;2.47;;
44165;SDS011;30476;53.468;9.826;2023-04-25T06:52:00;5.87;;;3.03;;
44165;SDS011;30476;53.468;9.826;2023-04-25T06:54:35;9.23;;;2.70;;
44165;SDS011;30476;53.468;9.826;2023-04-25T06:57:01;7.70;;;2.47;;
44165;SDS011;30476;53.468;9.826;2023-04-25T06:59:27;12.10;;;2.70;;
44165;SDS011;30476;53.468;9.826;2023-04-25T07:01:53;5.97;;;1.97;;
44165;SDS011;30476;53.468;9.826;2023-04-25T07:04:18;7.13;;;2.20;;
44165;SDS011;30476;53.468;9.826;2023-04-25T07:06:44;3.20;;;2.10;;
44165;SDS011;30476;53.468;9.826;2023-04-25T07:09:12;8.20;;;2.73;;
44165;SDS011;30476;53.468;9.826;2023-04-25T07:11:38;6.80;;;2.10;;
44165;SDS011;30476;53.468;9.826;2023-04-25T07:14:04;11.63;;;2.40;;
44165;SDS011;30476;53.468;9.826;2023-04-25T07:16:29;12.40;;;2.57;;
44165;SDS011;30476;53.468;9.826;2023-04-25T07:18:55;6.47;;;3.60;;
44165;SDS011;30476;53.468;9.826;2023-04-25T07:21:21;5.20;;;2.30;;
44165;SDS011;30476;53.468;9.826;2023-04-25T07:23:47;4.13;;;1.60;;
44165;SDS011;30476;53.468;9.826;2023-04-25T07:26:13;3.50;;;1.53;;
44165;SDS011;30476;53.468;9.826;2023-04-25T07:28:38;4.30;;;1.60;;
44165;SDS011;30476;53.468;9.826;2023-04-25T07:31:04;9.07;;;2.87;;
44165;SDS011;30476;53.468;9.826;2023-04-25T07:33:30;6.77;;;2.30;;
44165;SDS011;30476;53.468;9.826;2023-04-25T07:35:56;5.33;;;1.93;;
44165;SDS011;30476;53.468;9.826;2023-04-25T07:38:22;5.10;;;1.80;;
44165;SDS011;30476;53.468;9.826;2023-04-25T07:40:48;4.43;;;1.60;;
44165;SDS011;30476;53.468;9.826;2023-04-25T07:43:14;8.63;;;1.83;;
44165;SDS011;30476;53.468;9.826;2023-04-25T07:45:42;5.30;;;1.70;;
44165;SDS011;30476;53.468;9.826;2023-04-25T07:48:13;6.80;;;1.77;;
44165;SDS011;30476;53.468;9.826;2023-04-25T07:50:42;3.23;;;1.13;;
44165;SDS011;30476;53.468;9.826;2023-04-25T07:53:08;2.60;;;0.90;;
44165;SDS011;30476;53.468;9.826;2023-04-25T07:55:34;5.63;;;2.13;;
44165;SDS011;30476;53.468;9.826;2023-04-25T07:58:01;8.47;;;1.30;;
44165;SDS011;30476;53.468;9.826;2023-04-25T08:00:28;5.40;;;1.73;;
44165;SDS011;30476;53.468;9.826;2023-04-25T08:02:54;8.43;;;1.50;;
44165;SDS011;30476;53.468;9.826;2023-04-25T08:05:20;2.57;;;1.10;;
44165;SDS011;30476;53.468;9.826;2023-04-25T08:07:45;2.50;;;1.50;;
44165;SDS011;30476;53.468;9.826;2023-04-25T08:10:11;3.47;;;1.40;;
44165;SDS011;30476;53.468;9.826;2023-04-25T08:12:37;2.50;;;1.77;;
44165;SDS011;30476;53.468;9.826;2023-04-25T08:15:03;4.03;;;1.10;;
44165;SDS011;30476;53.468;9.826;2023-04-25T08:17:30;4.50;;;1.20;;
44165;SDS011;30476;53.468;9.826;2023-04-25T08:19:56;3.60;;;1.10;;
44165;SDS011;30476;53.468;9.826;2023-04-25T08:22:22;4.53;;;1.00;;
44165;SDS011;30476;53.468;9.826;2023-04-25T08:24:48;2.63;;;0.93;;
44165;SDS011;30476;53.468;9.826;2023-04-25T08:27:14;3.73;;;1.20;;
44165;SDS011;30476;53.468;9.826;2023-04-25T08:29:41;6.87;;;2.97;;
44165;SDS011;30476;53.468;9.826;2023-04-25T08:32:07;3.13;;;1.20;;
44165;SDS011;30476;53.468;9.826;2023-04-25T08:34:32;1.73;;;1.30;;
44165;SDS011;30476;53.468;9.826;2023-04-25T08:36:58;2.93;;;0.97;;
44165;SDS011;30476;53.468;9.826;2023-04-25T08:39:24;2.87;;;1.07;;
44165;SDS011;30476;53.468;9.826;2023-04-25T08:41:49;4.23;;;1.10;;
44165;SDS011;30476;53.468;9.826;2023-04-25T08:44:16;4.30;;;1.17;;
44165;SDS011;30476;53.468;9.826;2023-04-25T08:46:41;5.33;;;1.17;;
44165;SDS011;30476;53.468;9.826;2023-04-25T08:49:10;4.80;;;1.23;;
44165;SDS011;30476;53.468;9.826;2023-04-25T08:51:40;4.77;;;1.10;;
44165;SDS011;30476;53.468;9.826;2023-04-25T08:54:12;5.40;;;1.50;;
44165;SDS011;30476;53.468;9.826;2023-04-25T08:56:39;7.47;;;2.60;;
44165;SDS011;30476;53.468;9.826;2023-04-25T08:59:06;2.53;;;1.17;;
44165;SDS011;30476;53.468;9.826;2023-04-25T09:01:36;2.87;;;1.20;;
44165;SDS011;30476;53.468;9.826;2023-04-25T09:04:02;1.40;;;1.30;;
44165;SDS011;30476;53.468;9.826;2023-04-25T09:06:28;1.90;;;1.00;;
44165;SDS011;30476;53.468;9.826;2023-04-25T09:09:02;4.87;;;1.13;;
44165;SDS011;30476;53.468;9.826;2023-04-25T09:11:33;2.67;;;1.07;;
44165;SDS011;30476;53.468;9.826;2023-04-25T09:14:17;1.07;;;0.80;;
44165;SDS011;30476;53.468;9.826;2023-04-25T09:19:25;3.40;;;1.10;;
44165;SDS011;30476;53.468;9.826;2023-04-25T09:21:55;2.63;;;1.10;;
44165;SDS011;30476;53.468;9.826;2023-04-25T09:24:38;2.00;;;0.90;;
44165;SDS011;30476;53.468;9.826;2023-04-25T09:27:10;4.77;;;1.20;;
44165;SDS011;30476;53.468;9.826;2023-04-25T09:29:38;2.93;;;1.13;;
44165;SDS011;30476;53.468;9.826;2023-04-25T09:32:11;3.97;;;1.20;;
44165;SDS011;30476;53.468;9.826;2023-04-25T09:34:41;1.67;;;1.10;;
44165;SDS011;30476;53.468;9.826;2023-04-25T09:37:09;2.00;;;1.00;;
44165;SDS011;30476;53.468;9.826;2023-04-25T09:39:36;3.63;;;1.20;;
44165;SDS011;30476;53.468;9.826;2023-04-25T09:42:05;2.30;;;1.57;;
44165;SDS011;30476;53.468;9.826;2023-04-25T09:44:31;4.40;;;0.93;;
44165;SDS011;30476;53.468;9.826;2023-04-25T09:46:57;2.90;;;2.37;;
44165;SDS011;30476;53.468;9.826;2023-04-25T09:49:24;6.10;;;1.27;;
44165;SDS011;30476;53.468;9.826;2023-04-25T09:51:56;3.23;;;1.10;;
44165;SDS011;30476;53.468;9.826;2023-04-25T09:54:23;3.60;;;1.67;;
44165;SDS011;30476;53.468;9.826;2023-04-25T09:56:51;2.07;;;0.97;;
44165;SDS011;30476;53.468;9.826;2023-04-25T09:59:21;3.40;;;1.30;;
44165;SDS011;30476;53.468;9.826;2023-04-25T10:01:50;2.80;;;1.20;;
44165;SDS011;30476;53.468;9.826;2023-04-25T10:04:19;2.20;;;1.00;;
44165;SDS011;30476;53.468;9.826;2023-04-25T10:06:48;2.10;;;1.00;;
44165;SDS011;30476;53.468;9.826;2023-04-25T10:09:16;4.50;;;1.67;;
44165;SDS011;30476;53.468;9.826;2023-04-25T10:11:44;3.40;;;1.10;;
44165;SDS011;30476;53.468;9.826;2023-04-25T10:14:12;3.47;;;1.17;;
44165;SDS011;30476;53.468;9.826;2023-04-25T10:16:38;4.53;;;1.50;;
44165;SDS011;30476;53.468;9.826;2023-04-25T10:19:06;2.30;;;1.00;;
44165;SDS011;30476;53.468;9.826;2023-04-25T10:21:32;4.87;;;1.70;;
44165;SDS011;30476;53.468;9.826;2023-04-25T10:23:59;3.70;;;1.80;;
44165;SDS011;30476;53.468;9.826;2023-04-25T10:26:26;5.00;;;1.17;;
44165;SDS011;30476;53.468;9.826;2023-04-25T10:28:56;2.93;;;1.20;;
44165;SDS011;30476;53.468;9.826;2023-04-25T10:31:26;5.17;;;1.10;;
44165;SDS011;30476;53.468;9.826;2023-04-25T10:33:52;3.97;;;1.40;;
44165;SDS011;30476;53.468;9.826;2023-04-25T10:36:19;4.00;;;0.80;;
44165;SDS011;30476;53.468;9.826;2023-04-25T10:38:50;3.73;;;0.90;;
44165;SDS011;30476;53.468;9.826;2023-04-25T10:41:19;1.80;;;0.73;;
44165;SDS011;30476;53.468;9.826;2023-04-25T10:43:47;1.57;;;0.90;;
44165;SDS011;30476;53.468;9.826;2023-04-25T10:46:27;1.40;;;1.03;;
44165;SDS011;30476;53.468;9.826;2023-04-25T10:49:00;2.43;;;2.23;;
44165;SDS011;30476;53.468;9.826;2023-04-25T10:51:27;2.00;;;0.90;;
44165;SDS011;30476;53.468;9.826;2023-04-25T10:53:57;1.47;;;0.90;;
44165;SDS011;30476;53.468;9.826;2023-04-25T10:56:25;3.73;;;1.00;;
44165;SDS011;30476;53.468;9.826;2023-04-25T10:58:51;3.83;;;1.00;;
44165;SDS011;30476;53.468;9.826;2023-04-25T11:01:27;3.27;;;1.00;;
44165;SDS011;30476;53.468;9.826;2023-04-25T11:04:02;2.93;;;1.17;;
44165;SDS011;30476;53.468;9.826;2023-04-25T11:06:31;2.10;;;0.90;;
44165;SDS011;30476;53.468;9.826;2023-04-25T11:09:10;4.20;;;1.00;;
44165;SDS011;30476;53.468;9.826;2023-04-25T11:11:38;1.47;;;1.00;;
44165;SDS011;30476;53.468;9.826;2023-04-25T11:14:04;3.67;;;1.00;;
44165;SDS011;30476;53.468;9.826;2023-04-25T11:16:30;3.17;;;0.90;;
44165;SDS011;30476;53.468;9.826;2023-04-25T11:18:57;3.27;;;1.20;;
44165;SDS011;30476;53.468;9.826;2023-04-25T11:21:24;7.47;;;1.63;;
44165;SDS011;30476;53.468;9.826;2023-04-25T11:23:53;3.00;;;0.90;;
44165;SDS011;30476;53.468;9.826;2023-04-25T11:26:19;6.90;;;1.47;;
44165;SDS011;30476;53.468;9.826;2023-04-25T11:28:45;3.00;;;1.00;;
44165;SDS011;30476;53.468;9.826;2023-04-25T11:31:12;1.90;;;0.90;;
44165;SDS011;30476;53.468;9.826;2023-04-25T11:33:38;3.57;;;1.20;;
44165;SDS011;30476;53.468;9.826;2023-04-25T11:36:06;3.40;;;1.00;;
44165;SDS011;30476;53.468;9.826;2023-04-25T11:38:32;2.57;;;1.00;;
44165;SDS011;30476;53.468;9.826;2023-04-25T11:40:58;2.90;;;1.00;;
44165;SDS011;30476;53.468;9.826;2023-04-25T11:43:23;3.07;;;0.80;;
44165;SDS011;30476;53.468;9.826;2023-04-25T11:45:51;2.23;;;0.80;;
44165;SDS011;30476;53.468;9.826;2023-04-25T11:48:17;0.93;;;0.70;;
44165;SDS011;30476;53.468;9.826;2023-04-25T11:50:44;1.40;;;0.90;;
44165;SDS011;30476;53.468;9.826;2023-04-25T11:53:10;1.93;;;0.83;;
44165;SDS011;30476;53.468;9.826;2023-04-25T11:55:36;3.83;;;1.00;;
44165;SDS011;30476;53.468;9.826;2023-04-25T11:58:03;2.53;;;0.87;;
44165;SDS011;30476;53.468;9.826;2023-04-25T12:00:29;2.10;;;0.90;;
44165;SDS011;30476;53.468;9.826;2023-04-25T12:02:56;3.50;;;1.07;;
44165;SDS011;30476;53.468;9.826;2023-04-25T12:05:24;2.63;;;0.80;;
44165;SDS011;30476;53.468;9.826;2023-04-25T12:07:51;6.50;;;1.10;;
44165;SDS011;30476;53.468;9.826;2023-04-25T12:10:17;4.80;;;1.17;;
44165;SDS011;30476;53.468;9.826;2023-04-25T12:12:44;7.00;;;0.90;;
44165;SDS011;30476;53.468;9.826;2023-04-25T12:15:12;2.03;;;0.87;;
44165;SDS011;30476;53.468;9.826;2023-04-25T12:17:44;3.60;;;0.70;;
44165;SDS011;30476;53.468;9.826;2023-04-25T12:20:21;2.77;;;1.00;;
44165;SDS011;30476;53.468;9.826;2023-04-25T12:22:51;2.60;;;1.13;;
44165;SDS011;30476;53.468;9.826;2023-04-25T12:25:37;2.20;;;0.90;;
44165;SDS011;30476;53.468;9.826;2023-04-25T12:28:14;3.20;;;0.80;;
44165;SDS011;30476;53.468;9.826;2023-04-25T12:30:57;2.43;;;1.07;;
44165;SDS011;30476;53.468;9.826;2023-04-25T12:36:03;3.70;;;1.03;;
44165;SDS011;30476;53.468;9.826;2023-04-25T12:38:37;2.20;;;0.97;;
44165;SDS011;30476;53.468;9.826;2023-04-25T12:41:04;5.13;;;1.80;;
44165;SDS011;30476;53.468;9.826;2023-04-25T12:43:30;2.00;;;1.10;;
44165;SDS011;30476;53.468;9.826;2023-04-25T12:45:56;1.57;;;0.90;;
44165;SDS011;30476;53.468;9.826;2023-04-25T12:48:22;3.40;;;0.90;;
44165;SDS011;30476;53.468;9.826;2023-04-25T12:50:49;3.00;;;0.90;;
44165;SDS011;30476;53.468;9.826;2023-04-25T12:53:17;4.30;;;0.93;;
44165;SDS011;30476;53.468;9.826;2023-04-25T12:55:44;4.50;;;1.03;;
44165;SDS011;30476;53.468;9.826;2023-04-25T12:58:13;1.37;;;1.10;;
44165;SDS011;30476;53.468;9.826;2023-04-25T13:00:39;6.43;;;0.93;;
44165;SDS011;30476;53.468;9.826;2023-04-25T13:03:05;5.97;;;1.47;;
44165;SDS011;30476;53.468;9.826;2023-04-25T13:05:31;3.87;;;0.90;;
44165;SDS011;30476;53.468;9.826;2023-04-25T13:07:56;1.73;;;0.80;;
44165;SDS011;30476;53.468;9.826;2023-04-25T13:10:22;1.30;;;1.00;;
44165;SDS011;30476;53.468;9.826;2023-04-25T13:12:48;1.70;;;1.10;;
44165;SDS011;30476;53.468;9.826;2023-04-25T13:15:14;5.33;;;1.20;;
44165;SDS011;30476;53.468;9.826;2023-04-25T13:17:41;4.63;;;1.57;;
44165;SDS011;30476;53.468;9.826;2023-04-25T13:20:07;2.60;;;1.00;;
44165;SDS011;30476;53.468;9.826;2023-04-25T13:22:35;2.50;;;1.40;;
44165;SDS011;30476;53.468;9.826;2023-04-25T13:25:04;5.60;;;1.23;;
44165;SDS011;30476;53.468;9.826;2023-04-25T13:27:32;3.83;;;1.80;;
44165;SDS011;30476;53.468;9.826;2023-04-25T13:29:59;4.50;;;1.03;;
44165;SDS011;30476;53.468;9.826;2023-04-25T13:32:26;2.10;;;1.00;;
44165;SDS011;30476;53.468;9.826;2023-04-25T13:34:52;2.10;;;1.00;;
44165;SDS011;30476;53.468;9.826;2023-04-25T13:37:18;1.33;;;1.03;;
44165;SDS011;30476;53.468;9.826;2023-04-25T13:39:44;2.17;;;1.33;;
44165;SDS011;30476;53.468;9.826;2023-04-25T13:42:10;1.80;;;1.20;;
44165;SDS011;30476;53.468;9.826;2023-04-25T13:44:36;3.10;;;1.30;;
44165;SDS011;30476;53.468;9.826;2023-04-25T13:47:02;3.30;;;1.10;;
44165;SDS011;30476;53.468;9.826;2023-04-25T13:49:28;3.50;;;1.70;;
44165;SDS011;30476;53.468;9.826;2023-04-25T13:51:54;2.43;;;0.87;;
44165;SDS011;30476;53.468;9.826;2023-04-25T13:54:20;1.73;;;0.90;;
44165;SDS011;30476;53.468;9.826;2023-04-25T13:56:46;1.10;;;1.00;;
44165;SDS011;30476;53.468;9.826;2023-04-25T13:59:11;2.30;;;1.00;;
44165;SDS011;30476;53.468;9.826;2023-04-25T14:01:37;1.77;;;0.90;;
44165;SDS011;30476;53.468;9.826;2023-04-25T14:04:03;2.63;;;1.10;;
44165;SDS011;30476;53.468;9.826;2023-04-25T14:06:29;3.63;;;1.10;;
44165;SDS011;30476;53.468;9.826;2023-04-25T14:08:56;4.23;;;1.20;;
44165;SDS011;30476;53.468;9.826;2023-04-25T14:11:22;3.10;;;1.23;;
44165;SDS011;30476;53.468;9.826;2023-04-25T14:13:48;3.50;;;1.10;;
44165;SDS011;30476;53.468;9.826;2023-04-25T14:16:15;2.67;;;1.43;;
44165;SDS011;30476;53.468;9.826;2023-04-25T14:18:41;2.60;;;1.43;;
44165;SDS011;30476;53.468;9.826;2023-04-25T14:21:07;4.17;;;1.20;;
44165;SDS011;30476;53.468;9.826;2023-04-25T14:23:33;3.90;;;1.40;;
44165;SDS011;30476;53.468;9.826;2023-04-25T14:25:58;2.57;;;1.50;;
44165;SDS011;30476;53.468;9.826;2023-04-25T14:28:24;4.30;;;1.50;;
44165;SDS011;30476;53.468;9.826;2023-04-25T14:30:50;2.00;;;1.10;;
44165;SDS011;30476;53.468;9.826;2023-04-25T14:33:16;7.73;;;1.47;;
44165;SDS011;30476;53.468;9.826;2023-04-25T14:35:42;4.83;;;1.10;;
44165;SDS011;30476;53.468;9.826;2023-04-25T14:38:08;1.23;;;1.07;;
44165;SDS011;30476;53.468;9.826;2023-04-25T14:40:33;5.33;;;1.30;;
44165;SDS011;30476;53.468;9.826;2023-04-25T14:42:59;2.47;;;1.10;;
44165;SDS011;30476;53.468;9.826;2023-04-25T14:45:25;1.90;;;0.90;;
44165;SDS011;30476;53.468;9.826;2023-04-25T14:47:51;1.60;;;1.00;;
44165;SDS011;30476;53.468;9.826;2023-04-25T14:50:17;4.17;;;1.27;;
44165;SDS011;30476;53.468;9.826;2023-04-25T14:52:43;2.63;;;1.30;;
44165;SDS011;30476;53.468;9.826;2023-04-25T14:55:10;2.10;;;1.23;;